createdAt,value
2017-06-08T00:01:23.475Z,13.10
2017-06-08T00:03:51.091Z,13.10
2017-06-08T00:06:18.646Z,13.10
2017-06-08T00:08:46.207Z,13.10
2017-06-08T00:11:13.712Z,13.10
2017-06-08T00:13:41.326Z,13.10
2017-06-08T00:16:08.892Z,13.10
2017-06-08T00:18:36.443Z,13.10
2017-06-08T00:21:04.003Z,13.00
2017-06-08T00:23:31.563Z,13.00
2017-06-08T00:25:59.223Z,13.10
2017-06-08T00:28:26.778Z,13.00
2017-06-08T00:30:54.294Z,13.00
2017-06-08T00:33:21.799Z,12.90
2017-06-08T00:35:49.355Z,12.90
2017-06-08T00:38:16.919Z,12.90
2017-06-08T00:40:44.987Z,13.00
2017-06-08T00:43:12.548Z,13.00
2017-06-08T00:45:40.072Z,13.00
2017-06-08T00:48:08.374Z,12.90
2017-06-08T00:50:35.939Z,12.80
2017-06-08T00:53:04.827Z,12.80
2017-06-08T00:55:32.391Z,12.80
2017-06-08T00:57:59.942Z,12.80
2017-06-08T01:00:27.463Z,12.80
2017-06-08T01:02:55.071Z,12.80
2017-06-08T01:05:22.835Z,12.80
2017-06-08T01:07:50.387Z,12.80
2017-06-08T01:10:17.891Z,12.70
2017-06-08T01:12:45.503Z,12.70
2017-06-08T01:15:13.062Z,12.70
2017-06-08T01:17:41.030Z,12.70
2017-06-08T01:20:08.696Z,12.70
2017-06-08T01:22:36.255Z,12.60
2017-06-08T01:25:03.815Z,12.60
2017-06-08T01:27:31.371Z,12.60
2017-06-08T01:29:58.931Z,12.60
2017-06-08T01:32:26.491Z,12.60
2017-06-08T01:34:54.617Z,12.60
2017-06-08T01:37:22.223Z,12.60
2017-06-08T01:39:49.783Z,12.60
2017-06-08T01:42:17.444Z,12.60
2017-06-08T01:44:45.002Z,12.70
2017-06-08T01:47:12.663Z,12.60
2017-06-08T01:49:40.223Z,12.60
2017-06-08T01:52:07.779Z,12.50
2017-06-08T01:54:35.341Z,12.40
2017-06-08T01:57:03.521Z,12.40
2017-06-08T01:59:31.034Z,12.40
2017-06-08T02:01:58.536Z,12.40
2017-06-08T02:04:26.087Z,12.40
2017-06-08T02:06:53.651Z,12.40
2017-06-08T02:09:21.170Z,12.30
2017-06-08T02:11:49.593Z,12.40
2017-06-08T02:14:17.120Z,12.40
2017-06-08T02:16:45.828Z,12.30
2017-06-08T02:19:13.387Z,12.30
2017-06-08T02:21:40.907Z,12.20
2017-06-08T02:24:08.415Z,12.20
2017-06-08T02:26:35.935Z,12.10
2017-06-08T02:29:04.463Z,12.10
2017-06-08T02:31:31.999Z,12.00
2017-06-08T02:34:00.396Z,12.00
2017-06-08T02:36:27.939Z,12.00
2017-06-08T02:38:55.939Z,12.00
2017-06-08T02:41:23.463Z,12.10
2017-06-08T02:43:51.434Z,12.10
2017-06-08T02:46:18.991Z,12.10
2017-06-08T02:48:46.550Z,12.10
2017-06-08T02:51:14.703Z,12.10
2017-06-08T02:53:43.755Z,12.00
2017-06-08T02:56:11.595Z,12.00
2017-06-08T02:58:39.147Z,12.10
2017-06-08T03:01:06.931Z,12.10
2017-06-08T03:03:34.467Z,12.10
2017-06-08T03:06:02.024Z,12.10
2017-06-08T03:08:29.579Z,12.00
2017-06-08T03:10:57.144Z,12.00
2017-06-08T03:13:24.703Z,12.00
2017-06-08T03:15:52.259Z,12.00
2017-06-08T03:18:23.823Z,12.00
2017-06-08T03:20:51.374Z,12.00
2017-06-08T03:23:19.468Z,12.00
2017-06-08T03:25:47.371Z,12.10
2017-06-08T03:28:14.926Z,12.00
2017-06-08T03:30:42.446Z,12.10
2017-06-08T03:33:10.480Z,12.10
2017-06-08T03:35:38.875Z,12.10
2017-06-08T03:38:06.435Z,12.10
2017-06-08T03:40:34.316Z,12.10
2017-06-08T03:43:01.858Z,12.10
2017-06-08T03:45:29.379Z,12.10
2017-06-08T03:47:57.698Z,12.00
2017-06-08T03:50:25.219Z,12.00
2017-06-08T03:52:53.326Z,12.00
2017-06-08T03:55:20.883Z,12.00
2017-06-08T03:57:49.268Z,12.00
2017-06-08T04:00:16.824Z,12.00
2017-06-08T04:02:44.379Z,12.00
2017-06-08T04:05:11.895Z,12.00
2017-06-08T04:07:40.086Z,12.00
2017-06-08T04:10:08.486Z,12.20
2017-06-08T04:12:35.986Z,12.10
2017-06-08T04:15:03.491Z,12.20
2017-06-08T04:17:31.887Z,12.20
2017-06-08T04:19:59.779Z,12.20
2017-06-08T04:22:27.413Z,12.20
2017-06-08T04:24:55.085Z,12.30
2017-06-08T04:27:22.630Z,12.40
2017-06-08T04:29:50.286Z,12.40
2017-06-08T04:32:17.851Z,12.50
2017-06-08T04:34:45.783Z,12.50
2017-06-08T04:37:13.362Z,12.50
2017-06-08T04:39:42.155Z,12.70
2017-06-08T04:42:09.727Z,12.70
2017-06-08T04:44:37.539Z,12.70
2017-06-08T04:47:05.039Z,12.80
2017-06-08T04:49:32.607Z,12.80
2017-06-08T04:52:00.115Z,12.90
2017-06-08T04:54:27.723Z,13.00
2017-06-08T04:56:55.227Z,13.00
2017-06-08T04:59:22.842Z,13.10
2017-06-08T05:01:50.403Z,13.30
2017-06-08T05:04:17.963Z,13.30
2017-06-08T05:06:45.623Z,13.40
2017-06-08T05:09:13.183Z,13.50
2017-06-08T05:11:40.703Z,13.50
2017-06-08T05:14:08.299Z,13.60
2017-06-08T05:16:35.859Z,13.80
2017-06-08T05:19:03.424Z,13.90
2017-06-08T05:21:30.975Z,14.00
2017-06-08T05:23:58.931Z,14.00
2017-06-08T05:26:26.454Z,14.10
2017-06-08T05:28:53.954Z,14.20
2017-06-08T05:31:22.339Z,14.30
2017-06-08T05:33:49.899Z,14.30
2017-06-08T05:36:17.419Z,14.40
2017-06-08T05:38:44.919Z,14.40
2017-06-08T05:41:12.471Z,14.50
2017-06-08T05:43:39.993Z,14.50
2017-06-08T05:46:08.407Z,14.60
2017-06-08T05:48:35.967Z,14.70
2017-06-08T05:51:03.526Z,14.80
2017-06-08T05:53:31.082Z,14.90
2017-06-08T05:55:58.643Z,15.00
2017-06-08T05:58:26.218Z,15.10
2017-06-08T06:00:55.208Z,15.20
2017-06-08T06:03:22.755Z,15.30
2017-06-08T06:05:50.265Z,15.40
2017-06-08T06:08:17.866Z,15.40
2017-06-08T06:10:45.444Z,15.50
2017-06-08T06:13:12.946Z,15.60
2017-06-08T06:15:40.548Z,15.70
2017-06-08T06:18:08.131Z,15.80
2017-06-08T06:20:35.662Z,15.90
2017-06-08T06:23:03.227Z,16.00
2017-06-08T06:25:30.784Z,16.00
2017-06-08T06:27:58.350Z,16.00
2017-06-08T06:30:26.315Z,16.10
2017-06-08T06:32:53.976Z,16.20
2017-06-08T06:35:21.735Z,16.20
2017-06-08T06:37:49.503Z,16.30
2017-06-08T06:40:17.065Z,16.30
2017-06-08T06:42:44.570Z,16.50
2017-06-08T06:45:12.179Z,16.50
2017-06-08T06:47:39.739Z,16.60
2017-06-08T06:50:07.539Z,16.70
2017-06-08T06:52:35.063Z,16.70
2017-06-08T06:55:02.567Z,16.80
2017-06-08T06:57:30.386Z,16.80
2017-06-08T06:59:57.939Z,16.80
2017-06-08T07:02:25.802Z,16.80
2017-06-08T07:04:53.367Z,16.80
2017-06-08T07:07:20.890Z,16.80
2017-06-08T07:09:48.396Z,16.90
2017-06-08T07:12:15.919Z,17.00
2017-06-08T07:14:44.218Z,17.00
2017-06-08T07:17:11.746Z,17.00
2017-06-08T07:19:40.014Z,17.20
2017-06-08T07:22:07.610Z,17.10
2017-06-08T07:24:35.991Z,17.20
2017-06-08T07:27:03.559Z,17.30
2017-06-08T07:29:31.107Z,17.40
2017-06-08T07:31:58.939Z,17.50
2017-06-08T07:34:27.246Z,17.60
2017-06-08T07:36:54.751Z,17.60
2017-06-08T07:39:22.368Z,17.70
2017-06-08T07:41:50.135Z,17.80
2017-06-08T07:44:17.691Z,17.80
2017-06-08T07:46:45.251Z,17.80
2017-06-08T07:49:12.808Z,17.90
2017-06-08T07:51:40.895Z,17.90
2017-06-08T07:54:08.443Z,18.00
2017-06-08T07:56:35.951Z,18.10
2017-06-08T07:59:04.276Z,18.10
2017-06-08T08:01:44.442Z,18.20
2017-06-08T08:04:12.064Z,18.20
2017-06-08T08:06:40.467Z,18.40
2017-06-08T08:09:08.022Z,18.40
2017-06-08T08:11:35.551Z,18.50
2017-06-08T08:14:03.859Z,18.80
2017-06-08T08:16:31.419Z,18.70
2017-06-08T08:18:59.443Z,18.90
2017-06-08T08:21:27.487Z,18.90
2017-06-08T08:23:55.623Z,19.00
2017-06-08T08:26:23.192Z,19.00
2017-06-08T08:28:50.751Z,19.00
2017-06-08T08:31:19.126Z,19.00
2017-06-08T08:33:47.096Z,19.00
2017-06-08T08:36:14.624Z,19.20
2017-06-08T08:38:42.931Z,19.10
2017-06-08T08:41:10.493Z,19.10
2017-06-08T08:43:38.712Z,19.00
2017-06-08T08:46:06.735Z,18.90
2017-06-08T08:48:34.238Z,19.00
2017-06-08T08:51:01.744Z,19.10
2017-06-08T08:53:29.267Z,19.20
2017-06-08T08:55:56.867Z,19.20
2017-06-08T08:58:24.427Z,19.30
2017-06-08T09:00:52.215Z,19.30
2017-06-08T09:03:19.752Z,19.40
2017-06-08T09:05:47.320Z,19.40
2017-06-08T09:08:14.868Z,19.50
2017-06-08T09:10:42.426Z,19.50
2017-06-08T09:13:09.946Z,19.60
2017-06-08T09:15:37.543Z,19.70
2017-06-08T09:18:05.427Z,19.80
2017-06-08T09:20:32.939Z,19.90
2017-06-08T09:23:01.229Z,19.80
2017-06-08T09:25:28.813Z,19.80
2017-06-08T09:27:56.984Z,19.70
2017-06-08T09:30:24.809Z,19.60
2017-06-08T09:32:52.311Z,19.60
2017-06-08T09:35:19.835Z,19.70
2017-06-08T09:37:48.250Z,19.80
2017-06-08T09:40:15.801Z,19.80
2017-06-08T09:42:44.103Z,19.90
2017-06-08T09:45:11.631Z,20.00
2017-06-08T09:47:39.191Z,20.10
2017-06-08T09:50:06.761Z,20.30
2017-06-08T09:52:34.935Z,20.40
2017-06-08T09:55:02.456Z,20.50
2017-06-08T09:57:30.728Z,20.70
2017-06-08T09:59:59.040Z,20.50
2017-06-08T10:02:27.002Z,20.50
2017-06-08T10:04:54.559Z,20.60
2017-06-08T10:07:22.635Z,20.70
2017-06-08T10:09:50.198Z,20.60
2017-06-08T10:12:17.705Z,20.60
2017-06-08T10:14:45.211Z,20.60
2017-06-08T10:17:12.772Z,20.80
2017-06-08T10:19:40.540Z,20.90
2017-06-08T10:22:08.087Z,20.90
2017-06-08T10:24:35.647Z,21.00
2017-06-08T10:27:03.207Z,21.00
2017-06-08T10:29:30.715Z,21.20
2017-06-08T10:31:59.143Z,21.30
2017-06-08T10:34:26.751Z,21.30
2017-06-08T10:36:54.362Z,21.20
2017-06-08T10:39:21.920Z,21.20
2017-06-08T10:41:49.448Z,21.30
2017-06-08T10:44:17.715Z,21.50
2017-06-08T10:46:45.748Z,21.50
2017-06-08T10:49:14.410Z,21.80
2017-06-08T10:51:43.005Z,22.00
2017-06-08T10:54:10.551Z,22.50
2017-06-08T10:56:38.122Z,23.00
2017-06-08T10:59:05.672Z,23.60
2017-06-08T11:01:33.290Z,23.90
2017-06-08T11:04:00.811Z,24.20
2017-06-08T11:06:28.319Z,24.30
2017-06-08T11:08:56.607Z,24.40
2017-06-08T11:11:24.900Z,24.50
2017-06-08T11:13:52.460Z,24.40
2017-06-08T11:16:19.971Z,24.50
2017-06-08T11:18:47.558Z,24.40
2017-06-08T11:21:15.830Z,24.30
2017-06-08T11:23:44.241Z,24.10
2017-06-08T11:26:12.095Z,24.10
2017-06-08T11:28:39.760Z,24.00
2017-06-08T11:31:07.315Z,24.00
2017-06-08T11:33:35.435Z,24.00
2017-06-08T11:36:03.052Z,24.00
2017-06-08T11:38:30.557Z,23.90
2017-06-08T11:40:58.163Z,23.80
2017-06-08T11:43:25.667Z,23.70
2017-06-08T11:45:53.284Z,23.60
2017-06-08T11:48:20.791Z,23.60
2017-06-08T11:50:48.403Z,23.30
2017-06-08T11:53:16.771Z,23.00
2017-06-08T11:55:44.340Z,22.80
2017-06-08T11:58:11.903Z,22.60
2017-06-08T12:00:40.187Z,22.60
2017-06-08T12:03:08.254Z,22.70
2017-06-08T12:05:35.815Z,22.80
2017-06-08T12:08:03.363Z,22.80
2017-06-08T12:10:30.923Z,22.60
2017-06-08T12:12:58.483Z,22.60
2017-06-08T12:15:25.987Z,22.70
2017-06-08T12:17:53.507Z,22.70
2017-06-08T12:20:21.012Z,22.80
2017-06-08T12:22:48.536Z,22.90
2017-06-08T12:25:16.040Z,22.90
2017-06-08T12:27:44.361Z,23.10
2017-06-08T12:30:11.865Z,23.00
2017-06-08T12:32:39.504Z,23.10
2017-06-08T12:35:07.000Z,23.10
2017-06-08T12:37:35.399Z,23.10
2017-06-08T12:40:02.963Z,23.00
2017-06-08T12:42:30.520Z,23.10
2017-06-08T12:44:58.091Z,23.20
2017-06-08T12:47:25.648Z,23.30
2017-06-08T12:49:53.195Z,23.30
2017-06-08T12:52:20.755Z,23.20
2017-06-08T12:54:48.315Z,23.20
2017-06-08T12:57:15.823Z,23.30
2017-06-08T12:59:43.432Z,23.40
2017-06-08T13:02:10.943Z,23.60
2017-06-08T13:04:38.471Z,23.60
2017-06-08T13:07:06.006Z,23.70
2017-06-08T13:09:33.577Z,23.60
2017-06-08T13:12:01.123Z,23.60
2017-06-08T13:14:28.696Z,23.70
2017-06-08T13:16:56.243Z,23.80
2017-06-08T13:19:23.803Z,23.80
2017-06-08T13:21:51.363Z,23.70
2017-06-08T13:24:19.635Z,23.80
2017-06-08T13:26:47.351Z,23.80
2017-06-08T13:29:14.989Z,23.90
2017-06-08T13:31:43.272Z,24.00
2017-06-08T13:34:10.790Z,24.10
2017-06-08T13:36:38.363Z,24.00
2017-06-08T13:39:05.869Z,24.10
2017-06-08T13:41:33.470Z,24.10
2017-06-08T13:44:00.976Z,23.90
2017-06-08T13:46:28.500Z,23.80
2017-06-08T13:48:56.056Z,23.80
2017-06-08T13:51:23.603Z,23.90
2017-06-08T13:53:51.163Z,23.90
2017-06-08T13:56:18.732Z,24.00
2017-06-08T13:58:46.288Z,24.00
2017-06-08T14:01:13.844Z,24.10
2017-06-08T14:03:41.619Z,24.10
2017-06-08T14:06:09.148Z,24.30
2017-06-08T14:08:36.728Z,24.30
2017-06-08T14:11:04.385Z,24.30
2017-06-08T14:13:32.763Z,24.20
2017-06-08T14:16:00.324Z,24.30
2017-06-08T14:18:28.599Z,24.40
2017-06-08T14:20:56.155Z,24.50
2017-06-08T14:23:23.712Z,24.60
2017-06-08T14:25:51.226Z,24.80
2017-06-08T14:28:18.748Z,24.80
2017-06-08T14:30:46.291Z,24.90
2017-06-08T14:33:14.028Z,25.00
2017-06-08T14:35:42.299Z,25.30
2017-06-08T14:38:10.602Z,25.30
2017-06-08T14:40:38.103Z,25.30
2017-06-08T14:43:05.763Z,25.50
2017-06-08T14:45:33.295Z,25.60
2017-06-08T14:48:00.841Z,25.80
2017-06-08T14:50:29.120Z,26.00
2017-06-08T14:52:56.622Z,26.10
2017-06-08T14:55:24.244Z,26.30
2017-06-08T14:57:51.750Z,26.40
2017-06-08T15:00:19.295Z,26.60
2017-06-08T15:02:46.803Z,26.60
2017-06-08T15:05:14.375Z,26.70
2017-06-08T15:07:41.936Z,26.80
2017-06-08T15:10:09.459Z,26.60
2017-06-08T15:12:37.735Z,27.00
2017-06-08T15:15:06.039Z,27.40
2017-06-08T15:17:34.196Z,27.40
2017-06-08T15:20:01.748Z,27.70
2017-06-08T15:22:30.566Z,29.00
2017-06-08T15:24:58.175Z,29.00
2017-06-08T15:27:25.691Z,30.20
2017-06-08T15:29:53.244Z,31.10
2017-06-08T15:32:20.906Z,32.10
2017-06-08T15:34:48.451Z,33.00
2017-06-08T15:37:16.240Z,34.00
2017-06-08T15:39:43.752Z,35.20
2017-06-08T15:42:12.705Z,37.90
2017-06-08T15:44:40.235Z,37.80
2017-06-08T15:47:07.938Z,38.70
2017-06-08T15:49:36.268Z,40.20
2017-06-08T15:52:03.823Z,41.30
2017-06-08T15:54:31.905Z,41.90
2017-06-08T15:56:59.491Z,42.90
2017-06-08T15:59:27.114Z,42.80
2017-06-08T16:01:54.679Z,42.50
2017-06-08T16:04:22.203Z,43.60
2017-06-08T16:06:50.511Z,44.10
2017-06-08T16:09:18.035Z,44.10
2017-06-08T16:11:46.311Z,44.60
2017-06-08T16:14:14.619Z,45.70
2017-06-08T16:16:42.131Z,45.60
2017-06-08T16:19:09.655Z,46.20
2017-06-08T16:21:37.164Z,46.00
2017-06-08T16:24:05.455Z,46.80
2017-06-08T16:26:34.155Z,46.70
2017-06-08T16:29:01.715Z,46.40
2017-06-08T16:31:29.275Z,45.70
2017-06-08T16:33:56.832Z,46.60
2017-06-08T16:36:24.396Z,46.00
2017-06-08T16:38:51.899Z,45.10
2017-06-08T16:41:19.511Z,45.20
2017-06-08T16:43:47.020Z,45.60
2017-06-08T16:46:14.632Z,45.30
2017-06-08T16:48:42.183Z,45.10
2017-06-08T16:51:09.749Z,44.00
2017-06-08T16:53:37.748Z,42.10
2017-06-08T16:56:05.905Z,40.40
2017-06-08T16:58:33.443Z,38.30
2017-06-08T17:01:00.975Z,36.20
2017-06-08T17:03:29.279Z,33.00
2017-06-08T17:05:56.799Z,32.90
2017-06-08T17:08:24.306Z,32.10
2017-06-08T17:10:51.855Z,31.00
2017-06-08T17:13:19.362Z,30.40
2017-06-08T17:15:46.872Z,29.80
2017-06-08T17:18:14.655Z,29.40
2017-06-08T17:20:42.295Z,29.10
2017-06-08T17:23:09.959Z,28.80
2017-06-08T17:25:37.465Z,28.50
2017-06-08T17:28:05.000Z,28.10
2017-06-08T17:30:32.872Z,27.90
2017-06-08T17:33:00.495Z,27.80
2017-06-08T17:35:28.064Z,27.60
2017-06-08T17:37:55.628Z,27.30
2017-06-08T17:40:23.180Z,27.20
2017-06-08T17:42:50.784Z,27.10
2017-06-08T17:45:18.463Z,27.00
2017-06-08T17:47:45.971Z,27.00
2017-06-08T17:50:13.522Z,26.90
2017-06-08T17:52:41.291Z,26.90
2017-06-08T17:55:08.839Z,27.50
2017-06-08T17:57:36.352Z,27.90
2017-06-08T18:00:03.959Z,27.90
2017-06-08T18:02:31.465Z,27.90
2017-06-08T18:04:59.075Z,27.80
2017-06-08T18:07:26.630Z,27.60
2017-06-08T18:09:55.015Z,27.50
2017-06-08T18:12:22.571Z,27.40
2017-06-08T18:14:50.126Z,27.20
2017-06-08T18:17:18.434Z,27.10
2017-06-08T18:19:45.968Z,26.90
2017-06-08T18:22:13.524Z,26.70
2017-06-08T18:24:41.362Z,26.60
2017-06-08T18:27:09.771Z,26.30
2017-06-08T18:29:37.291Z,26.20
2017-06-08T18:32:05.609Z,26.00
2017-06-08T18:34:33.675Z,25.90
2017-06-08T18:37:01.204Z,25.80
2017-06-08T18:39:29.508Z,25.40
2017-06-08T18:41:57.588Z,25.40
2017-06-08T18:44:25.099Z,25.30
2017-06-08T18:46:52.699Z,25.20
2017-06-08T18:49:20.721Z,24.90
2017-06-08T18:51:48.255Z,24.80
2017-06-08T18:54:16.615Z,24.70
2017-06-08T18:56:44.367Z,24.60
2017-06-08T18:59:11.888Z,24.60
2017-06-08T19:01:40.168Z,24.40
2017-06-08T19:04:08.459Z,24.30
2017-06-08T19:06:36.328Z,24.30
2017-06-08T19:09:03.860Z,24.20
2017-06-08T19:11:32.179Z,24.00
2017-06-08T19:14:00.083Z,24.00
2017-06-08T19:16:27.587Z,23.90
2017-06-08T19:18:55.376Z,23.80
2017-06-08T19:21:22.896Z,23.60
2017-06-08T19:23:51.612Z,23.30
2017-06-08T19:26:19.163Z,23.30
2017-06-08T19:28:46.727Z,23.10
2017-06-08T19:31:14.235Z,23.00
2017-06-08T19:33:41.843Z,22.80
2017-06-08T19:36:09.967Z,22.70
2017-06-08T19:38:37.473Z,22.60
2017-06-08T19:41:05.011Z,22.50
2017-06-08T19:43:33.323Z,22.20
2017-06-08T19:46:01.332Z,22.20
2017-06-08T19:48:29.551Z,22.20
2017-06-08T19:50:57.125Z,22.10
2017-06-08T19:53:25.183Z,22.10
2017-06-08T19:55:52.748Z,22.00
2017-06-08T19:58:20.303Z,21.80
2017-06-08T20:00:47.859Z,21.80
2017-06-08T20:03:15.367Z,21.60
2017-06-08T20:05:43.092Z,21.50
2017-06-08T20:08:11.231Z,21.50
2017-06-08T20:10:39.519Z,21.30
2017-06-08T20:13:07.283Z,21.30
2017-06-08T20:15:34.804Z,21.20
2017-06-08T20:18:02.411Z,21.20
2017-06-08T20:20:29.984Z,21.10
2017-06-08T20:22:58.462Z,21.10
2017-06-08T20:25:26.011Z,21.10
2017-06-08T20:27:53.549Z,20.90
2017-06-08T20:30:21.059Z,20.80
2017-06-08T20:32:48.866Z,20.70
2017-06-08T20:35:16.399Z,20.50
2017-06-08T20:37:43.924Z,20.40
2017-06-08T20:40:11.595Z,20.20
2017-06-08T20:42:39.135Z,20.10
2017-06-08T20:45:07.264Z,20.10
2017-06-08T20:47:35.477Z,20.10
2017-06-08T20:50:02.980Z,20.00
2017-06-08T20:52:30.592Z,20.00
2017-06-08T20:54:58.265Z,20.00
2017-06-08T20:57:26.391Z,20.00
2017-06-08T20:59:53.987Z,20.00
2017-06-08T21:02:21.721Z,19.90
2017-06-08T21:04:50.384Z,19.90
2017-06-08T21:07:17.992Z,19.90
2017-06-08T21:09:45.759Z,19.80
2017-06-08T21:12:13.318Z,19.80
2017-06-08T21:14:40.879Z,19.80
2017-06-08T21:17:08.435Z,19.80
2017-06-08T21:19:35.991Z,19.90
2017-06-08T21:22:03.555Z,19.80
2017-06-08T21:24:31.152Z,19.80
2017-06-08T21:26:58.776Z,19.80
2017-06-08T21:29:26.387Z,19.80
2017-06-08T21:31:54.607Z,19.80
2017-06-08T21:34:22.128Z,19.70
2017-06-08T21:36:50.647Z,19.70
2017-06-08T21:39:18.210Z,19.70
2017-06-08T21:41:45.768Z,19.70
2017-06-08T21:44:13.337Z,19.70
2017-06-08T21:46:40.884Z,19.60
2017-06-08T21:49:08.443Z,19.70
2017-06-08T21:51:36.407Z,19.60
2017-06-08T21:54:03.911Z,19.60
2017-06-08T21:56:31.437Z,19.60
2017-06-08T21:58:59.407Z,19.50
2017-06-08T22:01:26.960Z,19.40
2017-06-08T22:03:54.516Z,19.40
2017-06-08T22:06:22.038Z,19.40
2017-06-08T22:08:50.347Z,19.40
2017-06-08T22:11:17.908Z,19.30
2017-06-08T22:13:46.028Z,19.30
2017-06-08T22:16:13.546Z,19.30
2017-06-08T22:18:41.387Z,19.30
2017-06-08T22:21:09.884Z,19.30
2017-06-08T22:23:37.444Z,19.20
2017-06-08T22:26:05.004Z,19.20
2017-06-08T22:28:33.492Z,19.20
2017-06-08T22:31:01.484Z,19.10
2017-06-08T22:33:29.007Z,19.00
2017-06-08T22:35:57.182Z,19.00
2017-06-08T22:38:24.744Z,18.90
2017-06-08T22:40:52.308Z,18.90
2017-06-08T22:43:19.831Z,18.90
2017-06-08T22:45:48.827Z,18.80
2017-06-08T22:48:17.126Z,18.80
2017-06-08T22:50:44.627Z,18.80
2017-06-08T22:53:12.247Z,18.80
2017-06-08T22:55:39.803Z,18.80
2017-06-08T22:58:07.672Z,18.80
2017-06-08T23:00:35.232Z,18.80
2017-06-08T23:03:02.774Z,18.70
2017-06-08T23:05:30.346Z,18.70
2017-06-08T23:07:58.023Z,18.60
2017-06-08T23:10:25.543Z,18.50
2017-06-08T23:12:54.783Z,18.50
2017-06-08T23:15:22.323Z,18.50
2017-06-08T23:17:49.831Z,18.40
2017-06-08T23:20:17.444Z,18.30
2017-06-08T23:22:44.947Z,18.30
2017-06-08T23:25:13.176Z,18.30
2017-06-08T23:27:41.339Z,18.40
2017-06-08T23:30:08.908Z,18.30
2017-06-08T23:32:36.411Z,18.30
2017-06-08T23:35:04.027Z,18.20
2017-06-08T23:37:31.592Z,18.20
2017-06-08T23:39:59.124Z,18.10
2017-06-08T23:42:27.419Z,17.90
2017-06-08T23:44:55.911Z,17.80
2017-06-08T23:47:23.459Z,17.70
2017-06-08T23:49:51.019Z,17.70
2017-06-08T23:52:18.585Z,17.70
2017-06-08T23:54:46.087Z,17.60
2017-06-08T23:57:13.808Z,17.50
2017-06-08T23:59:41.355Z,17.50
